Nearby METAR Reports

 

KLXT - Lees Summit Muni, Missouri, USA
Distance from station: E 5mi, 9km
Updated: Fri, 22-Aug-2014 11:53am CDT
Clear
Clear
 Wind from WSW
Wind: WSW 3 mph , 6 km/h
Temperature: 86°F , 30°C
Heat Index: 92°F , 33°C
Dew Point: 72°F , 22°C
Humidity: 62%
Barometer: 29.97 inHg , 1014.9 hPa
Clouds: Clear
Visibility: 10 miles , 16 km
2014/08/22 16:53 KLXT 221653Z AUTO 24003KT 10SM CLR 30/22 A2997 RMK AO2 SLP136 T03000217
KMKC - Kansas City/Dntn, Missouri, USA
Distance from station: NW 12mi, 19km
Updated: Fri, 22-Aug-2014 11:54am CDT
Clear
Clear
 Wind from W
Wind: W 5 mph , 7 km/h
Temperature: 88°F , 31°C
Heat Index: 95°F , 35°C
Dew Point: 72°F , 22°C
Humidity: 59%
Barometer: 29.94 inHg , 1013.9 hPa
Clouds: Clear
Visibility: 10 miles , 16 km
2014/08/22 16:54 KMKC 221654Z 27004KT 10SM CLR 31/22 A2994 RMK AO2 SLP127 T03110222
 
KIXD - Olathe/Industria, Kansas, USA
Distance from station: WSW 25mi, 41km
Updated: Fri, 22-Aug-2014 12:20pm CDT
Light rain, Mostly cloudy
Light rain, Mostly cloudy
 Wind from SE
Wind: SE 6 mph , 9 km/h
Temperature: 82°F , 28°C
Heat Index: 87°F , 31°C
Dew Point: 73°F , 23°C
Humidity: 74%
Barometer: 29.95 inHg , 1014.2 hPa
Summary: Light rain
Clouds: Mostly cloudy
Visibility: 7 miles , 11 km
Cloud details: Few Clouds 5000 ft
Partly cloudy 6500 ft
Mostly cloudy 9000 ft
2014/08/22 17:20 KIXD 221720Z 13005KT 7SM -RA FEW050 SCT065 BKN090 28/23 A2995 RMK AO2 RAB05 P0006 T02830228
KMCI - Kansas City/Intl, Missouri, USA
Distance from station: NW 26mi, 42km
Updated: Fri, 22-Aug-2014 11:53am CDT
Mostly cloudy
Mostly cloudy
 Wind from S
Wind: S 6 mph , 9 km/h
Temperature: 82°F , 28°C
Heat Index: 87°F , 31°C
Dew Point: 73°F , 23°C
Humidity: 74%
Barometer: 29.95 inHg , 1014.2 hPa
Clouds: Mostly cloudy
Visibility: 8 miles , 13 km
Cloud details: Few Clouds 8000 ft
Partly cloudy 15000 ft
Mostly cloudy 25000 ft
2014/08/22 16:53 KMCI 221653Z 17005KT 8SM FEW080 SCT150 BKN250 28/23 A2995 RMK AO2 SLP130 CB DSNT S-SW T02830233
 
KRCM - Warrensburg Skyh, Missouri, USA
Distance from station: ESE 38mi, 62km
Updated: Fri, 22-Aug-2014 12:15pm CDT
Clear
Clear
 Wind from calm
Wind: Calm
Temperature: 88°F , 31°C
Heat Index: 95°F , 35°C
Dew Point: 72°F , 22°C
Humidity: 59%
Barometer: 29.97 inHg , 1014.9 hPa
Clouds: Clear
Visibility: 10 miles , 16 km
2014/08/22 17:15 KRCM 221715Z AUTO 00000KT 10SM CLR 31/22 A2997 RMK AO2
KLWC - Lawrence, Kansas, USA
Distance from station: W 40mi, 65km
Updated: Fri, 22-Aug-2014 11:52am CDT
Clear
Clear
 Wind from S
Wind: S 6 mph , 9 km/h
Temperature: 91°F , 33°C
Heat Index: 98°F , 37°C
Dew Point: 72°F , 22°C
Humidity: 52%
Barometer: 29.93 inHg , 1013.5 hPa
Clouds: Clear
Visibility: 9 miles , 14 km
2014/08/22 16:52 KLWC 221652Z AUTO 17005KT 9SM CLR 33/22 A2993 RMK AO2 LTG DSNT SW SLP125 T03330222
 
KSZL - Whiteman Afb, Missouri, USA
Distance from station: ESE 53mi, 86km
Updated: Fri, 22-Aug-2014 11:58am CDT
Clear
Clear
 Wind from SW
Wind: SW 6 mph , 9 km/h
Temperature: 88°F , 31°C
Heat Index: 92°F , 33°C
Dew Point: 68°F , 20°C
Humidity: 52%
Barometer: 29.97 inHg , 1014.9 hPa
Clouds: Clear
Visibility: 10 miles , 16 km
2014/08/22 16:58 KSZL 221658Z AUTO 23005KT 10SM CLR 31/20 A2997 RMK AO2 SLP142 T03050200
KSTJ - St. Joseph, Missouri, USA
Distance from station: NNW 59mi, 95km
Updated: Fri, 22-Aug-2014 11:53am CDT
Clear
Clear
 Wind from S
Wind: S 6 mph , 9 km/h
Temperature: 77°F , 25°C
Dew Point: 75°F , 24°C
Humidity: 94%
Barometer: 29.92 inHg , 1013.2 hPa
Clouds: Clear
Visibility: 9 miles , 14 km
2014/08/22 16:53 KSTJ 221653Z 18005KT 9SM CLR 25/24 A2992 RMK AO2 RAB1558E12 SLP123 P0000 T02500239
 
KGLY - Clinton, Missouri, USA
Distance from station: SE 61mi, 98km
Updated: Fri, 22-Aug-2014 12:35pm CDT
Clear
Clear
 Wind from SSW
Wind: SSW 5 mph , 7 km/h
Temperature: 91°F , 33°C
Heat Index: 102°F , 39°C
Dew Point: 75°F , 24°C
Humidity: 59%
Barometer: 29.97 inHg , 1014.9 hPa
Clouds: Clear
Visibility: 8 miles , 13 km
2014/08/22 17:35 KGLY 221735Z AUTO 21004KT 8SM CLR 33/24 A2997 RMK AO2
KFOE - Topeka/Forbes, Kansas, USA
Distance from station: W 64mi, 103km
Updated: Fri, 22-Aug-2014 11:53am CDT
Clear
Clear
 Wind from SSE
Wind: SSE 10 mph , 17 km/h
Temperature: 91°F , 33°C
Heat Index: 96°F , 36°C
Dew Point: 70°F , 21°C
Humidity: 49%
Barometer: 29.93 inHg , 1013.5 hPa
Clouds: Clear
Visibility: 10 miles , 16 km
2014/08/22 16:53 KFOE 221653Z 15009KT 10SM CLR 33/21 A2993 RMK AO2 LTG DSNT S AND SW SLP120 T03330206
 
KDMO - Sedalia, Missouri, USA
Distance from station: ESE 72mi, 116km
Updated: Fri, 22-Aug-2014 11:53am CDT
Clear
Clear
 Wind from W
Wind: W 7 mph , 11 km/h
Temperature: 90°F , 32°C
Heat Index: 99°F , 37°C
Dew Point: 73°F , 23°C
Humidity: 59%
Barometer: 29.99 inHg , 1015.6 hPa
Clouds: Clear
Visibility: 7 miles , 11 km
2014/08/22 16:53 KDMO 221653Z AUTO 26006KT 7SM CLR 32/23 A2999 RMK AO2 SLP145 T03170228
KCDJ - Chillicothe, Missouri, USA
Distance from station: NE 74mi, 120km
Updated: Fri, 22-Aug-2014 11:52am CDT

 Wind from S
Wind: S 7 mph , 11 km/h
Temperature: 82°F , 28°C
Heat Index: 89°F , 32°C
Dew Point: 75°F , 24°C
Humidity: 79%
Barometer: 29.96 inHg , 1014.6 hPa
2014/08/22 16:52 KCDJ 221652Z AUTO 18006KT 28/24 A2996 RMK AO1 SLP128 T02830239
 
KFNB - Falls City/Brenn, Nebraska, USA
Distance from station: NW 96mi, 154km
Updated: Fri, 22-Aug-2014 12:35pm CDT
Clear
Clear
 Wind from SSE
Wind: SSE 7 mph , 11 km/h
Temperature: 75°F , 24°C
Dew Point: 72°F , 22°C
Humidity: 89%
Barometer: 29.91 inHg , 1012.9 hPa
Clouds: Clear
Visibility: 10 miles , 16 km
2014/08/22 17:35 KFNB 221735Z AUTO 16006KT 10SM CLR 24/22 A2991 RMK AO2 LTG DSNT NE RAE18 TSB1657E12 P0000 T02390222
KVER - Boonville, Missouri, USA
Distance from station: E 96mi, 154km
Updated: Fri, 22-Aug-2014 12:15pm CDT
Clear
Clear
 Wind from SW
Wind: SW 5 mph , 7 km/h
Temperature: 90°F , 32°C
Heat Index: 97°F , 36°C
Dew Point: 72°F , 22°C
Humidity: 55%
Barometer: 29.97 inHg , 1014.9 hPa
Clouds: Clear
Visibility: 10 miles , 16 km
2014/08/22 17:15 KVER 221715Z AUTO 23004KT 10SM CLR 32/22 A2997 RMK AO2 T03190222